Time;durP1;ratioP1;P1;durP2;ratioP2;P2;SDS_P1;SDS_P2;PMS_P1;PMS_P2;Temp;Humidity;BMP_temperature;BMP_pressure;BME280_temperature;BME280_humidity;BME280_pressure;Samples;Min_cycle;Max_cycle;Signal;HPM_P1;HPM_P2
2022/05/06 00:03:17;;;;;;;13.43;11.22;;;;;;;11.54;87.84;99455.73;4089349;85;21160;-80
2022/05/06 00:09:18;;;;;;;16.17;11.18;;;;;;;11.53;87.19;99453.56;4020099;87;21525;-81
2022/05/06 00:15:20;;;;;;;10.40;8.98;;;;;;;11.53;87.91;99453.56;4088152;84;22028;-80
2022/05/06 00:21:21;;;;;;;13.88;10.68;;;;;;;11.50;87.91;99457.62;4087646;85;21000;-80
2022/05/06 00:27:23;;;;;;;16.35;9.93;;;;;;;11.35;87.04;99461.31;4085631;85;21063;-81
2022/05/06 00:33:24;;;;;;;14.15;10.50;;;;;;;11.34;88.30;99472.08;4086022;85;21071;-81
2022/05/06 00:39:26;;;;;;;17.17;11.43;;;;;;;11.46;88.08;99503.39;4085233;85;21043;-82
2022/05/06 00:45:33;;;;;;;17.82;13.35;;;;;;;11.21;87.89;99500.83;4088282;85;21084;-81
2022/05/06 00:51:36;;;;;;;16.20;12.15;;;;;;;11.16;88.55;99497.83;4082389;85;21040;-81
2022/05/06 00:57:39;;;;;;;17.82;12.68;;;;;;;11.12;88.86;99503.81;4089291;85;21047;-80
2022/05/06 01:03:40;;;;;;;16.97;11.65;;;;;;;11.01;88.83;99500.09;4083810;85;22137;-81
2022/05/06 01:09:42;;;;;;;13.45;10.78;;;;;;;10.90;88.92;99492.27;4087365;85;21710;-80
2022/05/06 01:15:43;;;;;;;15.75;11.03;;;;;;;10.80;89.09;99499.17;4089318;85;21043;-81
2022/05/06 01:21:53;;;;;;;11.17;9.60;;;;;;;10.79;89.33;99505.02;4086011;85;21052;-80
2022/05/06 01:28:05;;;;;;;11.57;8.90;;;;;;;10.58;88.96;99512.25;4090358;85;21073;-80
2022/05/06 01:34:06;;;;;;;13.48;10.13;;;;;;;10.56;89.99;99513.17;4070670;85;21064;-80
2022/05/06 01:40:10;;;;;;;13.18;9.48;;;;;;;10.54;89.82;99511.97;4100697;85;20996;-79
2022/05/06 01:46:17;;;;;;;12.03;9.18;;;;;;;10.52;89.43;99521.87;4099022;85;21005;-80
2022/05/06 01:52:21;;;;;;;15.05;10.18;;;;;;;10.61;90.33;99527.14;4104608;85;21083;-80
2022/05/06 01:58:23;;;;;;;12.63;10.68;;;;;;;10.57;90.17;99533.91;4096216;85;21056;-80
2022/05/06 02:10:47;;;;;;;15.28;11.18;;;;;;;10.31;90.22;99546.67;4082950;85;21600;-81
2022/05/06 02:16:49;;;;;;;10.93;8.90;;;;;;;10.28;90.72;99548.76;4104237;85;21619;-81
2022/05/06 02:23:01;;;;;;;13.38;9.83;;;;;;;10.34;91.26;99552.22;4038382;85;21012;-82
2022/05/06 02:29:05;;;;;;;13.43;10.15;;;;;;;10.54;91.52;99553.80;4014391;87;21668;-81
2022/05/06 02:35:08;;;;;;;16.20;11.40;;;;;;;10.65;91.32;99554.00;4093281;84;21087;-80
2022/05/06 02:41:10;;;;;;;14.10;10.10;;;;;;;10.61;91.29;99551.22;4102945;85;21080;-80
2022/05/06 02:47:16;;;;;;;13.80;11.57;;;;;;;10.47;91.11;99557.78;4106946;85;21095;-81
2022/05/06 02:53:21;;;;;;;51.48;24.12;;;;;;;10.47;91.38;99554.24;4099439;84;21095;-81
2022/05/06 02:59:23;;;;;;;18.98;12.55;;;;;;;10.42;91.86;99565.47;4097595;85;21656;-81
2022/05/06 03:05:26;;;;;;;18.52;12.33;;;;;;;10.53;91.60;99580.97;4102565;85;21433;-81
2022/05/06 03:11:29;;;;;;;19.37;12.88;;;;;;;10.52;92.35;99590.31;4104681;85;21080;-81
2022/05/06 03:17:32;;;;;;;15.60;12.63;;;;;;;10.55;93.09;99608.79;4101117;85;21751;-82
2022/05/06 03:23:36;;;;;;;16.10;11.83;;;;;;;10.63;93.35;99598.77;4103007;85;21606;-82
2022/05/06 03:29:38;;;;;;;19.90;14.20;;;;;;;10.76;93.99;99598.81;4097949;85;21071;-82
2022/05/06 03:35:40;;;;;;;16.97;12.47;;;;;;;10.85;93.82;99595.30;4097838;85;21039;-80
2022/05/06 03:41:42;;;;;;;19.23;13.98;;;;;;;10.94;94.08;99606.25;4102415;85;21628;-81
2022/05/06 03:47:43;;;;;;;20.75;14.47;;;;;;;11.03;94.26;99598.59;4104564;84;21056;-81
2022/05/06 03:53:45;;;;;;;20.20;15.15;;;;;;;11.11;94.23;99592.66;4099783;85;21172;-80
2022/05/06 03:59:48;;;;;;;26.60;21.97;;;;;;;11.16;93.77;99581.97;4102054;85;21567;-81
2022/05/06 04:05:52;;;;;;;25.30;20.15;;;;;;;11.23;94.65;99576.03;4099010;85;21563;-81
2022/05/06 04:11:56;;;;;;;30.40;21.12;;;;;;;11.25;93.79;99576.47;4099897;85;21957;-80
2022/05/06 04:17:57;;;;;;;22.20;17.45;;;;;;;11.26;94.48;99583.52;4103578;85;21084;-81
2022/05/06 04:23:59;;;;;;;21.10;17.32;;;;;;;11.32;95.20;99584.02;4105505;85;21004;-81
2022/05/06 04:30:01;;;;;;;19.52;15.45;;;;;;;11.37;94.83;99583.13;4099836;85;21069;-81
2022/05/06 04:36:04;;;;;;;23.27;15.72;;;;;;;11.39;95.28;99584.13;4095599;84;21094;-81
2022/05/06 04:42:08;;;;;;;22.80;15.28;;;;;;;11.41;95.33;99588.67;4087403;84;21015;-82
2022/05/06 04:48:12;;;;;;;21.10;13.88;;;;;;;11.43;94.83;99591.28;4083707;85;22301;-82
2022/05/06 04:54:15;;;;;;;20.65;13.10;;;;;;;11.46;95.51;99597.41;4061496;85;21680;-81
2022/05/06 05:00:19;;;;;;;17.17;13.50;;;;;;;11.62;95.47;99595.30;4086814;85;21583;-81
2022/05/06 05:06:23;;;;;;;19.20;15.40;;;;;;;11.79;95.43;99602.28;4086712;85;21100;-81
2022/05/06 05:12:26;;;;;;;20.40;15.10;;;;;;;11.87;95.16;99588.28;4087006;84;21096;-81
2022/05/06 05:18:28;;;;;;;19.60;16.17;;;;;;;11.89;95.54;99595.58;4085331;85;21020;-81
2022/05/06 05:24:31;;;;;;;21.57;15.63;;;;;;;11.96;95.92;99584.72;4089459;85;21059;-80
2022/05/06 05:30:35;;;;;;;20.10;15.23;;;;;;;12.07;96.54;99589.78;4067596;85;21048;-80
2022/05/06 05:36:37;;;;;;;25.95;18.25;;;;;;;12.22;96.32;99592.13;4088207;85;21595;-80
2022/05/06 05:42:38;;;;;;;22.98;17.90;;;;;;;12.38;95.90;99592.17;4097704;85;21052;-81
2022/05/06 05:48:41;;;;;;;22.62;17.87;;;;;;;12.48;96.51;99594.86;4101579;84;21525;-81
2022/05/06 05:54:43;;;;;;;26.85;20.25;;;;;;;12.66;96.74;99593.11;4099610;84;21087;-82
2022/05/06 06:00:44;;;;;;;21.42;18.25;;;;;;;12.81;97.04;99600.34;4098633;84;21068;-82
2022/05/06 06:06:48;;;;;;;23.85;19.73;;;;;;;12.95;96.70;99603.85;4101668;85;21088;-80
2022/05/06 06:12:51;;;;;;;22.70;18.55;;;;;;;13.13;96.65;99606.23;4097465;85;21056;-81
2022/05/06 06:18:58;;;;;;;24.12;18.25;;;;;;;13.31;96.79;99616.84;4094052;85;22016;-81
2022/05/06 06:24:59;;;;;;;20.60;16.93;;;;;;;13.44;96.80;99620.87;4097425;85;21079;-81
2022/05/06 06:31:02;;;;;;;20.30;16.40;;;;;;;13.63;96.89;99626.16;4106178;85;22052;-82
2022/05/06 06:37:05;;;;;;;21.62;16.82;;;;;;;13.79;96.65;99620.63;4096195;85;21975;-83
2022/05/06 06:43:08;;;;;;;20.12;16.40;;;;;;;13.89;96.69;99633.66;4097141;85;21044;-80
2022/05/06 06:49:28;;;;;;;19.35;16.23;;;;;;;14.05;96.99;99633.38;4102650;85;21087;-79
2022/05/06 06:55:31;;;;;;;19.62;15.68;;;;;;;14.01;96.70;99632.58;4089726;85;21087;-79
2022/05/06 07:01:33;;;;;;;18.57;15.90;;;;;;;14.16;96.74;99635.63;4098656;85;21943;-79
2022/05/06 07:13:55;;;;;;;18.40;15.18;;;;;;;14.52;97.08;99637.45;4096184;85;21045;-79
2022/05/06 07:19:57;;;;;;;22.80;18.10;;;;;;;14.75;96.81;99648.98;4095771;85;21046;-79
2022/05/06 07:25:58;;;;;;;26.30;18.00;;;;;;;14.87;96.43;99645.91;4096568;85;21035;-79
2022/05/06 07:32:00;;;;;;;25.43;19.77;;;;;;;14.79;96.33;99645.66;4102097;85;21083;-79
2022/05/06 07:38:02;;;;;;;26.17;18.73;;;;;;;14.94;96.23;99654.80;4099046;85;21074;-78
2022/05/06 07:44:05;;;;;;;27.02;21.50;;;;;;;15.13;96.36;99651.11;4103030;85;21102;-78
2022/05/06 07:50:07;;;;;;;24.45;20.62;;;;;;;15.26;95.99;99659.81;4099592;85;21143;-79
2022/05/06 07:56:09;;;;;;;25.65;19.30;;;;;;;15.25;95.76;99659.02;4025199;85;21033;-79
2022/05/06 08:08:31;;;;;;;31.20;21.00;;;;;;;15.25;95.86;99671.42;4016357;87;21080;-80
2022/05/06 08:14:32;;;;;;;37.05;21.33;;;;;;;15.18;95.28;99676.14;4025238;87;21044;-83
2022/05/06 08:20:34;;;;;;;28.60;22.52;;;;;;;15.12;95.20;99681.25;3978725;88;21154;-81
2022/05/06 08:26:36;;;;;;;26.20;22.17;;;;;;;15.15;95.54;99681.05;4012194;87;21183;-80
2022/05/06 08:32:38;;;;;;;33.08;23.25;;;;;;;15.21;95.47;99680.30;4100220;84;21076;-81
2022/05/06 08:38:39;;;;;;;28.57;22.50;;;;;;;15.20;95.23;99677.34;4102931;85;21024;-80
2022/05/06 08:51:01;;;;;;;27.50;23.07;;;;;;;15.35;95.44;99692.75;4100097;85;22205;-80
2022/05/06 08:57:03;;;;;;;28.85;23.02;;;;;;;15.39;95.41;99694.95;4098471;85;21663;-81
2022/05/06 09:03:05;;;;;;;32.35;24.35;;;;;;;15.52;95.48;99696.75;4096986;85;21032;-80
2022/05/06 09:09:11;;;;;;;28.25;23.12;;;;;;;15.52;95.03;99699.52;4098482;85;21138;-81
2022/05/06 09:21:38;;;;;;;30.70;23.77;;;;;;;15.65;94.39;99692.45;4094393;85;21650;-80
2022/05/06 09:27:39;;;;;;;34.78;25.72;;;;;;;15.82;94.43;99699.20;4096880;85;21144;-81
2022/05/06 09:33:42;;;;;;;29.67;21.75;;;;;;;15.87;93.84;99704.31;4102031;85;20981;-81
2022/05/06 09:39:44;;;;;;;27.90;19.50;;;;;;;16.03;93.54;99708.86;4094092;85;21066;-80
2022/05/06 09:45:46;;;;;;;32.60;20.50;;;;;;;16.02;92.16;99699.02;4088455;85;21119;-81
2022/05/06 09:51:55;;;;;;;31.97;20.60;;;;;;;16.00;92.09;99710.45;4088682;85;21112;-80
2022/05/06 09:57:59;;;;;;;29.30;22.15;;;;;;;16.16;91.73;99710.06;4091988;85;22078;-80
2022/05/06 10:04:01;;;;;;;33.00;23.67;;;;;;;16.31;91.53;99708.28;4090319;85;21059;-79
2022/05/06 10:10:09;;;;;;;37.50;26.02;;;;;;;16.45;91.16;99702.77;4090026;84;21544;-80
2022/05/06 10:16:11;;;;;;;34.30;24.35;;;;;;;16.51;90.65;99703.94;4090106;85;21097;-80
2022/05/06 10:22:12;;;;;;;35.73;25.25;;;;;;;16.60;90.47;99707.69;4089510;85;21081;-80
2022/05/06 10:35:05;;;;;;;40.60;31.02;;;;;;;16.65;90.23;99712.79;4099781;87;21032;-80
2022/05/06 10:41:11;;;;;;;30.50;21.80;;;;;;;16.78;89.59;99705.66;4098697;85;21016;-81
2022/05/06 10:47:18;;;;;;;37.98;25.25;;;;;;;17.02;89.45;99713.88;4095512;85;21052;-80
2022/05/06 10:53:32;;;;;;;29.87;21.75;;;;;;;17.15;88.82;99709.48;4097199;85;21446;-82
2022/05/06 10:59:53;;;;;;;29.63;20.97;;;;;;;17.31;88.36;99701.30;4100217;85;21092;-80
2022/05/06 11:05:55;;;;;;;31.52;20.40;;;;;;;17.32;87.28;99694.60;4097471;85;21691;-82
2022/05/06 11:11:56;;;;;;;31.45;22.10;;;;;;;17.50;86.28;99688.39;4100670;84;21037;-80
2022/05/06 11:18:04;;;;;;;33.95;21.75;;;;;;;17.83;85.74;99687.20;4098927;84;64492;-80
2022/05/06 11:24:18;;;;;;;27.80;19.85;;;;;;;18.06;85.33;99674.94;4116289;84;21064;-80
2022/05/06 11:30:23;;;;;;;30.37;19.40;;;;;;;18.32;84.63;99679.08;4122753;84;21110;-79
2022/05/06 11:36:25;;;;;;;26.80;17.77;;;;;;;18.30;83.58;99673.95;4123432;85;21069;-80
2022/05/06 11:42:26;;;;;;;20.35;14.93;;;;;;;18.51;83.51;99678.54;4123480;85;21037;-80
2022/05/06 11:48:27;;;;;;;18.27;14.63;;;;;;;18.48;80.17;99683.48;4112411;84;22570;-81
2022/05/06 11:54:29;;;;;;;18.90;14.20;;;;;;;18.47;81.34;99691.04;4115712;84;21046;-81
2022/05/06 12:00:31;;;;;;;18.27;13.83;;;;;;;18.71;81.20;99677.50;4132446;84;21086;-80
2022/05/06 12:06:35;;;;;;;23.30;15.72;;;;;;;18.89;80.31;99669.61;4148037;84;21010;-80
2022/05/06 12:12:58;;;;;;;21.75;15.30;;;;;;;19.01;79.82;99669.86;4133893;84;21087;-81
2022/05/06 12:19:00;;;;;;;16.12;11.03;;;;;;;18.94;78.99;99667.74;4123905;84;21058;-80
2022/05/06 12:25:04;;;;;;;19.48;14.53;;;;;;;18.67;78.21;99659.33;4122739;84;21064;-79
2022/05/06 12:31:08;;;;;;;21.62;14.47;;;;;;;18.45;78.10;99652.44;4065016;87;21008;-80
2022/05/06 12:37:14;;;;;;;20.37;13.58;;;;;;;18.36;78.54;99658.45;4120808;84;21313;-79
2022/05/06 12:43:16;;;;;;;21.05;14.13;;;;;;;18.43;78.27;99657.63;4103117;84;21038;-80
2022/05/06 12:55:40;;;;;;;27.98;15.88;;;;;;;18.43;77.50;99661.78;4089349;85;21095;-80
2022/05/06 13:01:42;;;;;;;27.58;18.90;;;;;;;18.53;76.78;99657.52;4080445;85;21083;-80
2022/05/06 13:07:44;;;;;;;28.17;18.48;;;;;;;18.61;77.09;99654.85;4097265;85;21561;-80
2022/05/06 13:13:45;;;;;;;27.90;19.30;;;;;;;18.85;76.85;99648.05;4092703;85;21047;-80
2022/05/06 13:19:47;;;;;;;27.15;17.65;;;;;;;18.95;74.80;99645.75;4094264;85;21054;-80
2022/05/06 13:25:49;;;;;;;25.12;16.90;;;;;;;18.88;75.46;99651.37;4101089;85;21075;-80
2022/05/06 13:31:50;;;;;;;25.88;20.32;;;;;;;19.03;75.15;99640.31;4094863;85;21060;-80
2022/05/06 13:37:52;;;;;;;30.15;22.15;;;;;;;19.12;75.11;99638.57;4096915;85;21062;-81
2022/05/06 13:43:54;;;;;;;37.42;24.77;;;;;;;19.23;74.89;99630.89;4118365;85;21015;-81
2022/05/06 13:49:56;;;;;;;36.28;22.85;;;;;;;19.27;74.44;99630.26;4044505;86;21036;-80
2022/05/06 14:02:18;;;;;;;26.55;20.27;;;;;;;19.64;73.34;99614.06;4127072;85;21056;-80
2022/05/06 14:08:20;;;;;;;29.87;20.45;;;;;;;19.46;72.64;99614.35;4119110;84;21006;-79
2022/05/06 14:14:21;;;;;;;25.35;19.23;;;;;;;19.30;72.15;99609.22;4115251;85;21067;-79
2022/05/06 14:20:24;;;;;;;21.25;16.52;;;;;;;19.22;72.15;99604.35;4084227;85;21060;-80
2022/05/06 14:26:30;;;;;;;21.52;16.15;;;;;;;19.09;71.67;99611.66;4133806;84;21045;-79
2022/05/06 14:32:31;;;;;;;23.85;17.15;;;;;;;18.98;71.89;99601.30;4129187;85;21063;-82
2022/05/06 14:38:32;;;;;;;17.95;13.80;;;;;;;18.99;71.91;99602.09;4088315;85;21025;-80
2022/05/06 14:44:34;;;;;;;16.42;12.07;;;;;;;19.03;71.25;99601.47;4144753;84;21115;-80
2022/05/06 14:50:36;;;;;;;17.57;12.53;;;;;;;19.01;70.63;99603.86;4143443;84;21477;-80
2022/05/06 14:56:38;;;;;;;16.77;11.90;;;;;;;18.93;70.58;99605.15;4059838;86;21059;-80
2022/05/06 15:02:40;;;;;;;16.32;12.18;;;;;;;18.91;70.78;99602.00;4144674;84;21079;-80
2022/05/06 15:08:42;;;;;;;12.15;9.80;;;;;;;18.98;70.23;99600.53;4142331;84;21091;-82
2022/05/06 15:14:45;;;;;;;16.57;11.22;;;;;;;18.90;69.85;99601.23;4146964;84;21013;-80
2022/05/06 15:20:47;;;;;;;18.17;11.45;;;;;;;18.81;69.73;99602.94;4150193;84;21048;-79
2022/05/06 15:26:48;;;;;;;15.45;11.60;;;;;;;18.81;70.33;99598.77;4143235;84;21017;-79
2022/05/06 15:33:01;;;;;;;13.03;9.98;;;;;;;18.68;69.98;99607.62;4143834;84;21108;-80
2022/05/06 15:39:03;;;;;;;13.62;10.40;;;;;;;18.46;69.76;99601.36;4138552;84;21029;-79
2022/05/06 15:45:06;;;;;;;15.30;10.70;;;;;;;18.30;69.53;99598.33;4117815;84;21062;-80
2022/05/06 15:51:09;;;;;;;17.23;12.63;;;;;;;18.14;69.68;99599.47;4099144;85;21015;-79
2022/05/06 15:57:10;;;;;;;21.05;16.07;;;;;;;18.13;70.10;99597.91;4099575;85;21072;-80
2022/05/06 16:03:12;;;;;;;20.32;15.40;;;;;;;18.08;70.34;99583.91;4090623;85;21104;-79
2022/05/06 16:09:13;;;;;;;17.40;13.40;;;;;;;18.06;70.26;99589.66;4097689;85;21077;-79
2022/05/06 16:15:18;;;;;;;14.93;11.60;;;;;;;17.94;70.24;99586.02;4121121;84;21021;-80
2022/05/06 16:21:19;;;;;;;16.75;11.40;;;;;;;17.89;70.55;99592.78;4090659;85;21096;-80
2022/05/06 16:27:21;;;;;;;14.40;10.65;;;;;;;17.81;70.67;99598.19;4098378;85;21087;-80
2022/05/06 16:33:24;;;;;;;17.10;13.78;;;;;;;17.69;70.35;99590.98;4099249;85;21016;-81
2022/05/06 16:39:26;;;;;;;18.92;15.08;;;;;;;17.53;70.27;99593.47;4100471;85;22110;-81
2022/05/06 16:45:27;;;;;;;20.97;15.83;;;;;;;17.42;70.48;99597.67;4121123;85;21091;-81
2022/05/06 16:51:29;;;;;;;26.20;18.98;;;;;;;17.30;70.89;99594.59;4128839;85;20987;-80
2022/05/06 16:57:31;;;;;;;30.40;22.17;;;;;;;17.16;71.53;99600.39;4026439;85;21121;-80
2022/05/06 17:03:32;;;;;;;34.43;21.85;;;;;;;17.13;71.81;99603.20;4000172;82;9999631;-80
2022/05/06 17:09:34;;;;;;;27.20;20.62;;;;;;;17.02;71.91;99607.39;4084362;85;21049;-81
2022/05/06 17:15:35;;;;;;;32.05;22.25;;;;;;;16.81;72.75;99607.50;4042667;86;21956;-81
2022/05/06 17:21:37;;;;;;;29.65;20.92;;;;;;;16.73;72.95;99610.09;4118507;85;21028;-80
2022/05/06 17:27:39;;;;;;;28.80;21.35;;;;;;;16.67;73.36;99609.53;4115767;85;21020;-80
2022/05/06 17:33:41;;;;;;;27.48;18.07;;;;;;;16.52;73.61;99603.25;4117903;85;21061;-81
2022/05/06 17:39:43;;;;;;;25.17;17.37;;;;;;;16.41;74.13;99612.75;4114972;85;21630;-82
2022/05/06 17:45:45;;;;;;;21.70;16.77;;;;;;;16.22;74.51;99606.27;4109320;85;21572;-80
2022/05/06 17:51:47;;;;;;;26.80;17.60;;;;;;;16.12;74.60;99604.30;4108264;85;21945;-80
2022/05/06 17:57:49;;;;;;;25.55;17.60;;;;;;;15.88;74.74;99623.84;4114500;85;21634;-80
2022/05/06 18:03:56;;;;;;;23.32;17.17;;;;;;;15.82;75.08;99624.05;3989623;84;10000415;-80
2022/05/06 18:09:58;;;;;;;30.57;21.40;;;;;;;15.77;75.46;99632.72;4100266;85;21093;-79
2022/05/06 18:15:59;;;;;;;29.27;20.15;;;;;;;15.64;75.37;99638.45;4094517;85;21066;-80
2022/05/06 18:22:01;;;;;;;29.27;20.85;;;;;;;15.58;76.19;99642.78;4090642;84;21017;-80
2022/05/06 18:28:03;;;;;;;28.77;20.08;;;;;;;15.48;76.15;99653.20;4100580;85;21972;-80
2022/05/06 18:34:04;;;;;;;30.15;19.80;;;;;;;15.43;76.72;99661.28;4108570;85;20986;-80
2022/05/06 18:40:11;;;;;;;27.37;18.75;;;;;;;15.40;77.07;99668.95;4091651;84;21055;-81
2022/05/06 18:46:18;;;;;;;34.75;22.58;;;;;;;15.34;77.29;99672.45;4114022;84;20972;-81
2022/05/06 18:52:20;;;;;;;29.25;19.73;;;;;;;15.23;77.57;99682.66;4116034;84;21038;-83
2022/05/06 18:58:22;;;;;;;32.88;21.02;;;;;;;15.20;77.88;99680.69;4115457;84;21893;-80
2022/05/06 19:04:25;;;;;;;28.50;20.00;;;;;;;15.14;78.34;99678.11;4117255;84;21417;-80
2022/05/06 19:10:27;;;;;;;29.70;20.62;;;;;;;15.05;78.58;99674.31;4116318;84;21008;-83
2022/05/06 19:16:29;;;;;;;37.25;23.87;;;;;;;14.98;79.10;99675.69;4107482;84;20991;-80
2022/05/06 19:28:50;;;;;;;43.35;27.73;;;;;;;14.90;79.79;99676.03;4115549;84;21010;-80
2022/05/06 19:34:52;;;;;;;56.30;32.38;;;;;;;14.81;79.94;99673.64;4086792;85;21081;-80
2022/05/06 19:40:54;;;;;;;60.73;33.28;;;;;;;14.65;80.35;99666.84;4114049;84;21666;-80
2022/05/06 19:46:57;;;;;;;54.20;32.58;;;;;;;14.56;80.77;99671.34;4084622;85;21012;-80
2022/05/06 19:53:00;;;;;;;53.10;32.15;;;;;;;14.50;81.34;99670.09;4088603;85;21024;-80
2022/05/06 19:59:05;;;;;;;47.17;28.75;;;;;;;14.52;81.69;99675.25;4036946;87;21614;-79
2022/05/06 20:05:08;;;;;;;50.10;30.95;;;;;;;14.47;82.10;99679.73;4085766;85;21031;-81
2022/05/06 20:11:10;;;;;;;56.08;32.10;;;;;;;14.47;82.43;99678.36;4088390;85;20999;-80
2022/05/06 20:17:17;;;;;;;50.40;31.15;;;;;;;14.41;82.68;99675.77;4112261;84;21094;-80
2022/05/06 20:23:19;;;;;;;48.85;31.62;;;;;;;14.34;82.97;99672.95;4119701;84;20979;-80
2022/05/06 20:29:20;;;;;;;46.30;27.62;;;;;;;14.28;83.33;99671.16;4114169;84;21059;-79
2022/05/06 20:35:22;;;;;;;42.80;28.42;;;;;;;14.29;83.64;99676.86;4111803;84;21084;-78
2022/05/06 20:41:23;;;;;;;44.40;28.32;;;;;;;14.25;83.69;99674.66;4117016;84;21081;-80
2022/05/06 20:47:25;;;;;;;44.05;27.05;;;;;;;14.20;84.06;99672.25;4102757;85;21034;-80
2022/05/06 20:53:27;;;;;;;41.18;25.95;;;;;;;14.25;84.29;99675.27;4104009;84;21037;-80
2022/05/06 20:59:32;;;;;;;40.83;26.23;;;;;;;14.27;84.33;99675.06;4104302;85;21098;-81
2022/05/06 21:05:35;;;;;;;41.53;28.12;;;;;;;14.28;84.46;99664.86;4066459;85;21025;-80
2022/05/06 21:17:56;;;;;;;41.28;26.10;;;;;;;14.24;84.73;99667.58;4097920;85;21100;-80
2022/05/06 21:23:58;;;;;;;42.23;27.90;;;;;;;14.22;84.97;99671.26;4106385;85;21113;-80
2022/05/06 21:29:59;;;;;;;53.23;32.05;;;;;;;14.20;85.04;99673.02;4099856;85;21053;-79
2022/05/06 21:36:06;;;;;;;47.15;32.50;;;;;;;14.12;85.12;99671.41;4097261;85;21045;-80
2022/05/06 21:42:07;;;;;;;43.48;29.82;;;;;;;14.05;85.59;99663.09;4095551;85;21015;-80
2022/05/06 21:48:09;;;;;;;40.52;27.52;;;;;;;13.94;85.80;99662.20;4112437;85;21552;-80
2022/05/06 21:54:11;;;;;;;38.38;24.82;;;;;;;13.95;86.31;99654.14;4116711;85;21015;-79
2022/05/06 22:00:18;;;;;;;42.03;28.30;;;;;;;13.96;86.66;99648.86;4123144;85;20989;-80
2022/05/06 22:06:16;;;;;;;44.48;30.40;;;;;;;13.95;86.81;99663.01;4124753;85;20985;-80
2022/05/06 22:12:18;;;;;;;49.25;32.42;;;;;;;13.79;86.40;99656.97;4044445;86;21017;-79
2022/05/06 22:18:20;;;;;;;50.12;31.55;;;;;;;13.74;87.02;99642.18;4119877;85;21040;-80
2022/05/06 22:24:22;;;;;;;46.77;32.55;;;;;;;13.68;87.54;99639.00;4116279;85;21016;-80
2022/05/06 22:30:23;;;;;;;53.28;33.42;;;;;;;13.62;87.84;99640.52;4116147;85;21076;-80
2022/05/06 22:36:25;;;;;;;55.88;34.75;;;;;;;13.61;88.08;99643.63;4115778;85;22150;-81
2022/05/06 22:48:45;;;;;;;54.70;35.45;;;;;;;13.45;88.53;99629.34;4144166;84;21148;-80
2022/05/06 22:54:47;;;;;;;47.67;31.27;;;;;;;13.34;88.64;99620.97;4156832;84;21092;-80
2022/05/06 23:00:49;;;;;;;53.50;33.25;;;;;;;13.29;89.18;99624.66;4164390;84;21075;-80
2022/05/06 23:06:51;;;;;;;54.08;34.80;;;;;;;13.28;88.96;99620.34;4129776;84;21089;-80
2022/05/06 23:12:52;;;;;;;55.33;36.40;;;;;;;13.26;89.56;99618.55;4053135;85;21069;-83
2022/05/06 23:18:53;;;;;;;56.33;36.33;;;;;;;13.19;89.59;99623.95;4010146;87;21107;-80
2022/05/06 23:24:55;;;;;;;51.77;35.73;;;;;;;13.16;89.92;99611.77;4030075;86;21108;-80
2022/05/06 23:30:58;;;;;;;53.95;36.40;;;;;;;13.11;89.99;99608.58;4009325;87;21075;-80
2022/05/06 23:43:24;;;;;;;55.30;35.23;;;;;;;12.96;90.79;99604.85;4014470;86;21037;-80
2022/05/06 23:49:26;;;;;;;55.73;36.28;;;;;;;12.94;90.74;99605.80;4071582;85;21038;-80
2022/05/06 23:55:27;;;;;;;41.05;28.38;;;;;;;12.92;90.68;99606.75;4062427;85;21112;-80
